Time;durP1;ratioP1;P1;durP2;ratioP2;P2;SDS_P1;SDS_P2;PMS_P1;PMS_P2;Temp;Humidity;BMP_temperature;BMP_pressure;BME280_temperature;BME280_humidity;BME280_pressure;Samples;Min_cycle;Max_cycle;Signal;HPM_P1;HPM_P2
2022/02/08 00:02:36;;;;;;;0.68;0.13;;;-2.50;68.80;;;;;;21132694;28;20032;-46
2022/02/08 00:12:38;;;;;;;0.13;0.00;;;-2.90;68.70;;;;;;21132311;28;20047;-47
2022/02/08 00:22:41;;;;;;;0.30;0.13;;;-2.60;67.90;;;;;;21130935;28;20035;-48
2022/02/08 00:32:44;;;;;;;0.30;0.00;;;-2.80;70.00;;;;;;21132283;28;20032;-47
2022/02/08 00:42:46;;;;;;;2.13;0.10;;;-3.10;71.10;;;;;;21113488;28;20024;-45
2022/02/08 00:52:49;;;;;;;0.10;0.00;;;-3.40;71.10;;;;;;21130763;28;20426;-46
2022/02/08 01:02:53;;;;;;;0.32;0.10;;;-3.30;70.00;;;;;;21112177;28;20089;-46
2022/02/08 01:12:56;;;;;;;0.30;0.10;;;-3.20;71.40;;;;;;21117560;28;20059;-48
2022/02/08 01:23:03;;;;;;;0.30;0.03;;;-3.50;71.10;;;;;;21146245;28;20151;-45
2022/02/08 01:53:19;;;;;;;0.03;0.00;;;-3.00;69.70;;;;;;21143828;28;20036;-46
2022/02/08 02:03:22;;;;;;;0.20;0.00;;;-3.00;68.70;;;;;;21126314;28;20049;-48
2022/02/08 02:13:42;;;;;;;0.10;0.00;;;-2.80;68.90;;;;;;21124588;28;20056;-46
2022/02/08 02:23:51;;;;;;;0.63;0.00;;;-2.70;68.40;;;;;;21141169;28;20108;-45
2022/02/08 02:33:58;;;;;;;0.13;0.00;;;-2.30;65.70;;;;;;21140387;28;20092;-46
2022/02/08 02:44:17;;;;;;;0.00;0.00;;;-2.30;65.70;;;;;;21139394;28;20040;-46
2022/02/08 02:54:20;;;;;;;0.00;0.00;;;-2.60;65.70;;;;;;21119476;28;20051;-45
2022/02/08 03:25:06;;;;;;;0.00;0.00;;;-1.70;61.60;;;;;;21117175;28;20104;-47
2022/02/08 03:35:10;;;;;;;0.20;0.00;;;-1.70;59.60;;;;;;21134658;28;20035;-45
2022/02/08 03:45:15;;;;;;;0.25;0.00;;;-1.60;59.90;;;;;;21117792;28;20062;-46
2022/02/08 03:55:18;;;;;;;0.30;0.08;;;-1.50;56.80;;;;;;21133614;28;20035;-46
2022/02/08 04:05:27;;;;;;;0.22;0.10;;;-1.10;55.60;;;;;;21116756;28;20528;-46
2022/02/08 04:46:41;;;;;;;0.57;0.00;;;-1.00;52.70;;;;;;21074460;28;20058;-45
2022/02/08 04:57:07;;;;;;;0.00;0.00;;;-0.80;52.60;;;;;;21087837;28;20437;-47
2022/02/08 05:48:22;;;;;;;0.28;0.00;;;-0.60;50.30;;;;;;21127668;28;20043;-48
2022/02/08 05:58:26;;;;;;;0.10;0.00;;;-0.40;49.60;;;;;;21131928;28;20092;-46
2022/02/08 06:08:28;;;;;;;0.00;0.00;;;-0.40;50.90;;;;;;21141919;28;20031;-46
2022/02/08 06:18:31;;;;;;;0.00;0.00;;;-0.60;50.30;;;;;;21124524;28;20044;-45
2022/02/08 06:28:34;;;;;;;3.40;0.10;;;-0.60;50.20;;;;;;21123795;28;20348;-48
2022/02/08 06:38:36;;;;;;;0.50;0.20;;;-0.10;49.70;;;;;;21140349;28;20043;-48
2022/02/08 06:48:40;;;;;;;0.17;0.00;;;-0.20;48.80;;;;;;21139396;28;20036;-45
2022/02/08 06:58:49;;;;;;;0.10;0.00;;;0.00;48.30;;;;;;21121494;28;20370;-48
2022/02/08 07:08:51;;;;;;;0.00;0.00;;;0.10;48.70;;;;;;21135950;28;20047;-46
2022/02/08 07:18:54;;;;;;;0.00;0.00;;;0.20;48.10;;;;;;21087804;28;20052;-46
2022/02/08 07:28:56;;;;;;;0.00;0.00;;;0.50;48.70;;;;;;21086920;28;20093;-46
2022/02/08 07:38:59;;;;;;;0.00;0.00;;;0.90;48.90;;;;;;21104560;28;20031;-48
2022/02/08 07:49:04;;;;;;;0.00;0.00;;;1.40;48.20;;;;;;21108704;28;20039;-46
2022/02/08 07:59:07;;;;;;;0.00;0.00;;;1.90;47.80;;;;;;21068183;28;20093;-46
2022/02/08 08:09:10;;;;;;;0.10;0.00;;;2.80;46.20;;;;;;21065789;28;20472;-46
2022/02/08 08:19:25;;;;;;;0.10;0.00;;;3.70;44.70;;;;;;21071628;28;20431;-46
2022/02/08 08:29:28;;;;;;;0.05;0.00;;;4.30;44.90;;;;;;21094509;28;20472;-47
2022/02/08 08:39:46;;;;;;;1.00;0.00;;;4.70;45.10;;;;;;21094138;28;20069;-46
2022/02/08 09:00:11;;;;;;;0.28;0.00;;;5.40;45.50;;;;;;21113023;28;20491;-45
2022/02/08 09:10:18;;;;;;;0.05;0.00;;;5.90;45.20;;;;;;21129122;28;20104;-46
2022/02/08 09:20:44;;;;;;;0.00;0.00;;;6.20;44.10;;;;;;21128130;28;20044;-46
2022/02/08 09:30:50;;;;;;;0.05;0.00;;;6.20;44.30;;;;;;21129724;28;20372;-46
2022/02/08 09:40:54;;;;;;;0.10;0.00;;;6.90;44.00;;;;;;21144491;28;20036;-46
2022/02/08 09:50:58;;;;;;;0.20;0.00;;;8.00;45.30;;;;;;21144194;28;20092;-47
2022/02/08 10:01:18;;;;;;;0.10;0.00;;;9.20;45.20;;;;;;21142770;28;20032;-48
2022/02/08 10:11:27;;;;;;;0.00;0.00;;;10.00;44.30;;;;;;21139073;28;20036;-45
2022/02/08 10:21:43;;;;;;;0.30;0.00;;;10.10;43.40;;;;;;21141330;28;20047;-48
2022/02/08 10:41:54;;;;;;;0.10;0.00;;;10.80;42.20;;;;;;21138695;28;20039;-46
2022/02/08 10:52:01;;;;;;;1.33;0.10;;;10.90;41.90;;;;;;21139547;28;20089;-48
2022/02/08 11:02:15;;;;;;;0.32;0.10;;;11.20;41.90;;;;;;21135425;28;20085;-46
2022/02/08 11:12:50;;;;;;;0.40;0.20;;;11.30;40.80;;;;;;21122886;28;20043;-48
2022/02/08 11:22:59;;;;;;;0.45;0.10;;;11.50;41.80;;;;;;21137070;28;20104;-48
2022/02/08 11:33:19;;;;;;;0.32;0.10;;;11.50;42.90;;;;;;21136086;28;20088;-47
2022/02/08 11:43:53;;;;;;;0.30;0.10;;;11.60;43.20;;;;;;21132803;28;20479;-48
2022/02/08 11:55:02;;;;;;;0.10;0.00;;;11.60;40.90;;;;;;21130521;28;20036;-47
2022/02/08 12:04:52;;;;;;;0.40;0.20;;;11.80;43.00;;;;;;21125586;28;20044;-48
2022/02/08 13:06:32;;;;;;;0.10;0.00;;;12.70;42.90;;;;;;21130742;28;20475;-46
2022/02/08 15:09:53;;;;;;;3.33;0.95;;;7.70;50.80;;;;;;21121156;28;20076;-47
2022/02/08 15:19:59;;;;;;;5.75;1.40;;;7.10;51.30;;;;;;21120167;28;20047;-48
2022/02/08 15:30:02;;;;;;;1.42;0.68;;;6.60;52.70;;;;;;21136447;28;20043;-46
2022/02/08 15:40:09;;;;;;;1.83;0.40;;;6.30;55.20;;;;;;21118952;28;20462;-48
2022/02/08 15:50:18;;;;;;;0.40;0.00;;;5.50;57.50;;;;;;21134841;28;20031;-46
2022/02/08 16:10:33;;;;;;;4.15;2.15;;;4.20;60.50;;;;;;21132921;28;20085;-45
2022/02/08 16:21:05;;;;;;;0.32;0.00;;;3.60;62.70;;;;;;21062429;28;20060;-46
2022/02/08 17:02:07;;;;;;;0.00;0.00;;;2.70;66.80;;;;;;21045178;28;20036;-46
2022/02/08 17:12:20;;;;;;;0.00;0.00;;;2.40;66.90;;;;;;21029801;28;20032;-46
2022/02/08 17:53:29;;;;;;;0.68;0.00;;;1.80;69.00;;;;;;21085076;28;20077;-46
2022/02/08 18:03:32;;;;;;;0.00;0.00;;;1.50;70.10;;;;;;21101810;28;20032;-46
2022/02/08 18:13:39;;;;;;;0.00;0.00;;;1.50;70.70;;;;;;21108250;27;20578;-46
2022/02/08 19:25:10;;;;;;;0.03;0.00;;;1.30;71.20;;;;;;21136258;28;20120;-46
2022/02/08 19:35:15;;;;;;;0.22;0.00;;;1.10;71.90;;;;;;21135360;28;20035;-48
2022/02/08 19:45:24;;;;;;;0.17;0.00;;;1.00;72.30;;;;;;21134224;28;20047;-58
2022/02/08 20:05:32;;;;;;;0.15;0.08;;;1.30;69.80;;;;;;21136923;28;20035;-52
2022/02/08 20:15:35;;;;;;;0.30;0.00;;;1.50;70.00;;;;;;21135573;28;20047;-56
2022/02/08 20:25:46;;;;;;;0.20;0.10;;;1.70;69.10;;;;;;21135484;28;20039;-58
2022/02/08 20:35:50;;;;;;;0.20;0.00;;;1.90;68.20;;;;;;21131789;28;20441;-55
2022/02/08 20:45:54;;;;;;;0.22;0.00;;;1.60;69.40;;;;;;21130223;28;20147;-59
2022/02/08 20:56:08;;;;;;;0.13;0.00;;;1.20;70.40;;;;;;21127224;28;20031;-55
2022/02/08 21:06:14;;;;;;;0.00;0.00;;;1.00;73.10;;;;;;21129700;28;20092;-55
2022/02/08 21:16:26;;;;;;;0.13;0.00;;;1.10;72.70;;;;;;21127574;28;20047;-54
2022/02/08 21:26:33;;;;;;;0.20;0.10;;;1.20;71.50;;;;;;21128171;28;20044;-58
2022/02/08 21:57:22;;;;;;;0.10;0.00;;;1.40;69.40;;;;;;21129749;28;20044;-56
2022/02/08 22:07:24;;;;;;;0.00;0.00;;;1.40;71.00;;;;;;21126725;28;20096;-56
2022/02/08 22:27:52;;;;;;;0.30;0.10;;;1.50;74.70;;;;;;21156471;28;20171;-52
2022/02/08 22:38:17;;;;;;;0.00;0.00;;;1.90;72.00;;;;;;21123638;28;20453;-51
2022/02/08 22:48:22;;;;;;;0.08;0.00;;;2.60;68.70;;;;;;21139865;28;20166;-59
2022/02/08 22:58:24;;;;;;;0.10;0.00;;;3.70;67.20;;;;;;21139827;28;20036;-62
2022/02/08 23:08:27;;;;;;;0.20;0.00;;;4.40;66.40;;;;;;21138182;28;20380;-58
2022/02/08 23:39:13;;;;;;;0.43;0.00;;;3.60;67.80;;;;;;21132602;28;20567;-48
2022/02/08 23:59:41;;;;;;;0.28;0.10;;;3.40;69.20;;;;;;21134118;28;20344;-47
